Time;durP1;ratioP1;P1;durP2;ratioP2;P2;SDS_P1;SDS_P2;PMS_P1;PMS_P2;Temp;Humidity;BMP_temperature;BMP_pressure;BME280_temperature;BME280_humidity;BME280_pressure;Samples;Min_cycle;Max_cycle;Signal;HPM_P1;HPM_P2
2021/09/06 00:00:12;;;;;;;;;;;;;;;23.64;47.35;101735.19;4934926;29;19923;-60
2021/09/06 00:02:39;;;;;;;;;;;;;;;23.57;47.59;101745.66;4935107;29;19971;-60
2021/09/06 00:05:09;;;;;;;;;;;;;;;23.50;47.43;101749.09;4935204;29;19965;-60
2021/09/06 00:07:37;;;;;;;;;;;;;;;23.46;47.81;101745.84;4935316;29;19931;-61
2021/09/06 00:10:22;;;;;;;;;;;;;;;23.41;47.91;101750.81;4935157;29;19953;-60
2021/09/06 00:12:48;;;;;;;;;;;;;;;23.34;48.02;101750.56;4934843;29;19922;-60
2021/09/06 00:15:15;;;;;;;;;;;;;;;23.30;48.09;101750.00;4935113;29;19965;-60
2021/09/06 00:17:41;;;;;;;;;;;;;;;23.27;48.35;101746.75;4934835;29;19923;-60
2021/09/06 00:20:08;;;;;;;;;;;;;;;23.30;48.52;101751.84;4934850;29;20436;-59
2021/09/06 00:22:35;;;;;;;;;;;;;;;23.30;48.15;101741.97;4934850;29;19922;-59
2021/09/06 00:25:01;;;;;;;;;;;;;;;23.31;48.37;101742.78;4934783;29;20394;-60
2021/09/06 00:27:28;;;;;;;;;;;;;;;23.28;48.53;101751.97;4935191;29;20355;-61
2021/09/06 00:29:55;;;;;;;;;;;;;;;23.23;48.67;101754.25;4934829;29;19923;-61
2021/09/06 00:32:22;;;;;;;;;;;;;;;23.18;48.96;101753.84;4934793;29;19927;-60
2021/09/06 00:34:48;;;;;;;;;;;;;;;23.13;49.33;101754.25;4934381;29;19923;-60
2021/09/06 00:37:15;;;;;;;;;;;;;;;23.11;49.06;101755.41;4934645;29;20017;-60
2021/09/06 00:39:41;;;;;;;;;;;;;;;23.09;49.19;101754.69;4934782;29;19977;-61
2021/09/06 00:42:08;;;;;;;;;;;;;;;23.08;49.42;101756.50;4934596;29;19934;-60
2021/09/06 00:44:34;;;;;;;;;;;;;;;23.08;49.27;101753.00;4934634;29;19927;-61
2021/09/06 00:47:01;;;;;;;;;;;;;;;23.08;49.29;101755.66;4934619;29;19927;-60
2021/09/06 00:49:27;;;;;;;;;;;;;;;23.07;49.44;101762.00;4934371;29;19927;-61
2021/09/06 00:51:55;;;;;;;;;;;;;;;23.04;49.38;101759.63;4934109;29;19973;-61
2021/09/06 00:54:21;;;;;;;;;;;;;;;23.03;49.52;101757.94;4934445;29;20044;-60
2021/09/06 00:56:53;;;;;;;;;;;;;;;23.01;49.73;101755.41;4934104;29;19922;-60
2021/09/06 00:59:25;;;;;;;;;;;;;;;23.00;49.62;101759.06;4934004;29;19922;-60
2021/09/06 01:01:54;;;;;;;;;;;;;;;22.98;49.77;101751.19;4934076;29;19927;-60
2021/09/06 01:04:21;;;;;;;;;;;;;;;22.97;49.55;101757.53;4934120;29;19923;-60
2021/09/06 01:06:47;;;;;;;;;;;;;;;22.96;49.70;101763.03;4934007;29;19922;-60
2021/09/06 01:09:14;;;;;;;;;;;;;;;22.93;49.89;101758.81;4934039;29;19926;-60
2021/09/06 01:11:41;;;;;;;;;;;;;;;22.93;50.14;101758.81;4934214;29;20009;-61
2021/09/06 01:14:07;;;;;;;;;;;;;;;22.92;49.94;101749.09;4933948;29;20009;-61
2021/09/06 01:16:34;;;;;;;;;;;;;;;22.97;49.55;101754.00;4934483;29;19930;-61
2021/09/06 01:19:00;;;;;;;;;;;;;;;22.97;49.33;101754.84;4937006;29;19923;-60
2021/09/06 01:21:27;;;;;;;;;;;;;;;23.01;48.99;101752.72;4937049;29;20340;-60
2021/09/06 01:23:53;;;;;;;;;;;;;;;22.98;49.02;101755.69;4936886;29;19926;-60
2021/09/06 01:26:20;;;;;;;;;;;;;;;23.05;48.49;101764.00;4936539;29;19951;-60
2021/09/06 01:28:46;;;;;;;;;;;;;;;23.05;47.98;101764.81;4937010;29;19923;-60
2021/09/06 01:31:13;;;;;;;;;;;;;;;23.08;47.63;101767.19;4936832;29;20376;-61
2021/09/06 01:33:39;;;;;;;;;;;;;;;23.08;47.31;101769.03;4936877;29;19926;-60
2021/09/06 01:36:06;;;;;;;;;;;;;;;23.08;47.38;101774.41;4936614;29;20382;-60
2021/09/06 01:38:33;;;;;;;;;;;;;;;23.06;46.89;101769.19;4936810;29;19923;-61
2021/09/06 01:41:00;;;;;;;;;;;;;;;23.08;46.64;101769.88;4936305;29;19922;-61
2021/09/06 01:43:26;;;;;;;;;;;;;;;23.08;46.62;101775.25;4936629;29;20065;-60
2021/09/06 01:45:53;;;;;;;;;;;;;;;23.11;46.18;101776.81;4936711;29;19930;-60
2021/09/06 01:48:19;;;;;;;;;;;;;;;23.11;46.01;101774.13;4936619;29;19970;-60
2021/09/06 01:50:46;;;;;;;;;;;;;;;23.10;45.90;101778.63;4935532;29;19923;-60
2021/09/06 01:53:12;;;;;;;;;;;;;;;23.06;45.91;101779.91;4936495;29;20351;-61
2021/09/06 01:55:39;;;;;;;;;;;;;;;23.01;45.50;101774.16;4936391;29;19922;-60
2021/09/06 01:58:05;;;;;;;;;;;;;;;23.02;45.39;101780.31;4935951;29;19929;-60
2021/09/06 02:00:32;;;;;;;;;;;;;;;23.00;45.28;101772.44;4936308;29;19922;-60
2021/09/06 02:02:59;;;;;;;;;;;;;;;23.02;44.90;101774.97;4936332;29;19928;-60
2021/09/06 02:05:25;;;;;;;;;;;;;;;23.06;44.81;101779.91;4936077;29;19922;-60
2021/09/06 02:07:52;;;;;;;;;;;;;;;23.08;44.59;101777.91;4936038;29;19944;-60
2021/09/06 02:10:18;;;;;;;;;;;;;;;23.08;44.23;101782.44;4936222;29;19926;-60
2021/09/06 02:12:45;;;;;;;;;;;;;;;23.08;44.45;101787.78;4935730;29;20379;-60
2021/09/06 02:15:11;;;;;;;;;;;;;;;23.07;43.87;101783.41;4936137;29;19922;-61
2021/09/06 02:17:38;;;;;;;;;;;;;;;23.08;44.13;101785.13;4936229;29;19923;-60
2021/09/06 02:20:05;;;;;;;;;;;;;;;23.07;43.96;101783.41;4936109;29;19927;-60
2021/09/06 02:22:31;;;;;;;;;;;;;;;23.09;43.56;101779.59;4935967;29;19926;-60
2021/09/06 02:24:58;;;;;;;;;;;;;;;23.06;43.42;101779.91;4935898;29;19926;-60
2021/09/06 02:27:24;;;;;;;;;;;;;;;23.05;43.66;101782.75;4936026;29;19926;-60
2021/09/06 02:29:51;;;;;;;;;;;;;;;22.99;43.92;101790.34;4935865;29;19978;-60
2021/09/06 02:32:17;;;;;;;;;;;;;;;22.97;44.16;101783.47;4935584;29;19930;-60
2021/09/06 02:34:44;;;;;;;;;;;;;;;22.94;44.25;101786.41;4935874;29;19927;-61
2021/09/06 02:37:10;;;;;;;;;;;;;;;22.91;44.43;101786.69;4935734;29;20434;-59
2021/09/06 02:39:37;;;;;;;;;;;;;;;22.87;44.25;101779.91;4935839;29;19922;-61
2021/09/06 02:42:04;;;;;;;;;;;;;;;22.84;44.69;101778.38;4935723;29;20343;-61
2021/09/06 02:44:30;;;;;;;;;;;;;;;22.80;44.61;101772.50;4935666;29;19927;-60
2021/09/06 02:46:57;;;;;;;;;;;;;;;22.77;44.67;101774.59;4935331;29;19922;-60
2021/09/06 02:49:24;;;;;;;;;;;;;;;22.69;45.12;101769.09;4935547;29;19922;-60
2021/09/06 02:51:51;;;;;;;;;;;;;;;22.65;45.08;101773.88;4935612;29;19922;-60
2021/09/06 02:54:17;;;;;;;;;;;;;;;22.60;45.65;101773.47;4935726;29;20267;-60
2021/09/06 02:56:44;;;;;;;;;;;;;;;22.57;45.89;101776.44;4935445;29;19926;-59
2021/09/06 02:59:11;;;;;;;;;;;;;;;22.52;45.92;101774.16;4935724;29;19922;-61
2021/09/06 03:01:37;;;;;;;;;;;;;;;22.48;46.38;101773.59;4935396;29;19923;-61
2021/09/06 03:04:04;;;;;;;;;;;;;;;22.47;46.29;101777.28;4931112;29;20005;-61
2021/09/06 03:06:30;;;;;;;;;;;;;;;22.43;46.10;101775.00;4932419;29;19970;-60
2021/09/06 03:08:57;;;;;;;;;;;;;;;22.38;46.37;101779.94;4932221;29;19930;-59
2021/09/06 03:11:24;;;;;;;;;;;;;;;22.43;45.94;101781.19;4932399;29;19923;-60
2021/09/06 03:13:51;;;;;;;;;;;;;;;22.47;46.10;101781.78;4932240;29;20344;-59
2021/09/06 03:16:17;;;;;;;;;;;;;;;22.50;45.45;101787.69;4932312;29;19927;-60
2021/09/06 03:18:44;;;;;;;;;;;;;;;22.50;45.32;101789.53;4933857;29;20733;-60
2021/09/06 03:21:10;;;;;;;;;;;;;;;22.46;46.02;101786.28;4936027;29;20464;-61
2021/09/06 03:23:37;;;;;;;;;;;;;;;22.42;45.97;101784.84;4935959;29;19930;-60
2021/09/06 03:26:03;;;;;;;;;;;;;;;22.37;46.28;101783.59;4935812;29;19930;-59
2021/09/06 03:28:30;;;;;;;;;;;;;;;22.38;46.28;101787.97;4935951;29;19938;-60
2021/09/06 03:30:56;;;;;;;;;;;;;;;22.33;46.28;101781.19;4935960;29;19982;-60
2021/09/06 03:33:23;;;;;;;;;;;;;;;22.25;46.37;101775.66;4936077;29;19923;-60
2021/09/06 03:35:49;;;;;;;;;;;;;;;22.33;46.10;101781.19;4935475;29;19926;-60
2021/09/06 03:38:16;;;;;;;;;;;;;;;22.36;45.89;101777.38;4935647;29;19922;-61
2021/09/06 03:40:43;;;;;;;;;;;;;;;22.37;45.67;101784.44;4935542;29;20029;-60
2021/09/06 03:43:09;;;;;;;;;;;;;;;22.37;45.69;101779.06;4935598;29;19927;-60
2021/09/06 03:45:36;;;;;;;;;;;;;;;22.38;45.65;101771.91;4935459;29;20419;-60
2021/09/06 03:48:02;;;;;;;;;;;;;;;22.37;45.36;101778.25;4935403;29;20458;-60
2021/09/06 03:50:29;;;;;;;;;;;;;;;22.34;45.21;101779.34;4935763;29;19934;-60
2021/09/06 03:52:56;;;;;;;;;;;;;;;22.31;45.41;101780.47;4935184;29;19933;-59
2021/09/06 03:55:22;;;;;;;;;;;;;;;22.30;45.63;101781.44;4935352;29;19978;-60
2021/09/06 03:57:49;;;;;;;;;;;;;;;22.22;45.78;101783.97;4935252;29;19948;-60
2021/09/06 04:00:15;;;;;;;;;;;;;;;22.18;46.03;101787.88;4935316;29;20367;-60
2021/09/06 04:02:42;;;;;;;;;;;;;;;22.09;46.34;101788.72;4935137;29;19927;-60
2021/09/06 04:05:09;;;;;;;;;;;;;;;22.02;46.62;101783.91;4935432;29;19923;-61
2021/09/06 04:07:36;;;;;;;;;;;;;;;21.94;46.62;101789.13;4935117;29;20367;-60
2021/09/06 04:10:02;;;;;;;;;;;;;;;21.86;47.15;101791.59;4934723;29;19937;-60
2021/09/06 04:12:29;;;;;;;;;;;;;;;21.80;47.05;101789.47;4935016;29;19923;-60
2021/09/06 04:14:56;;;;;;;;;;;;;;;21.59;47.69;101794.88;4935270;29;20403;-60
2021/09/06 04:17:22;;;;;;;;;;;;;;;21.51;48.23;101798.19;4935089;29;19922;-61
2021/09/06 04:19:49;;;;;;;;;;;;;;;21.45;48.14;101801.38;4934875;29;19929;-60
2021/09/06 04:22:15;;;;;;;;;;;;;;;21.41;48.33;101798.13;4934907;29;19930;-60
2021/09/06 04:24:45;;;;;;;;;;;;;;;21.40;48.43;101792.94;4934861;29;19960;-60
2021/09/06 04:27:11;;;;;;;;;;;;;;;21.39;48.74;101794.75;4934820;29;19926;-60
2021/09/06 04:29:38;;;;;;;;;;;;;;;21.45;48.33;101786.19;4934410;29;19930;-60
2021/09/06 04:32:05;;;;;;;;;;;;;;;21.50;48.23;101796.50;4934574;29;19926;-60
2021/09/06 04:34:32;;;;;;;;;;;;;;;21.48;48.54;101791.28;4934582;29;20001;-61
2021/09/06 04:36:59;;;;;;;;;;;;;;;21.46;48.41;101801.25;4934366;29;20390;-60
2021/09/06 04:39:25;;;;;;;;;;;;;;;21.43;48.45;101798.81;4934480;29;19927;-60
2021/09/06 04:41:51;;;;;;;;;;;;;;;21.44;48.28;101802.34;4934684;29;19923;-60
2021/09/06 04:44:18;;;;;;;;;;;;;;;21.48;48.60;101801.97;4934545;29;19923;-60
2021/09/06 04:46:45;;;;;;;;;;;;;;;21.49;48.39;101800.97;4934493;29;19926;-60
2021/09/06 04:49:11;;;;;;;;;;;;;;;21.54;47.90;101795.25;4934605;29;19962;-60
2021/09/06 04:51:38;;;;;;;;;;;;;;;21.58;47.74;101803.88;4934206;29;20372;-60
2021/09/06 04:54:04;;;;;;;;;;;;;;;21.55;47.84;101802.31;4933789;29;19953;-60
2021/09/06 04:56:31;;;;;;;;;;;;;;;21.54;48.13;101812.09;4934343;29;19923;-60
2021/09/06 04:58:57;;;;;;;;;;;;;;;21.53;47.89;101812.25;4934270;29;20463;-59
2021/09/06 05:01:24;;;;;;;;;;;;;;;21.53;47.94;101805.09;4934481;29;19929;-61
2021/09/06 05:03:51;;;;;;;;;;;;;;;21.58;48.17;101807.38;4934150;29;19981;-61
2021/09/06 05:06:17;;;;;;;;;;;;;;;21.59;47.78;101806.41;4934015;29;19922;-59
2021/09/06 05:08:44;;;;;;;;;;;;;;;21.64;47.92;101809.50;4934187;29;20527;-60
2021/09/06 05:11:10;;;;;;;;;;;;;;;21.69;47.37;101817.97;4934044;29;20261;-60
2021/09/06 05:13:37;;;;;;;;;;;;;;;21.73;47.75;101823.06;4934058;29;19923;-60
2021/09/06 05:16:04;;;;;;;;;;;;;;;21.78;47.25;101821.66;4933407;29;19930;-60
2021/09/06 05:18:30;;;;;;;;;;;;;;;21.82;47.35;101825.75;4916726;29;19923;-60
2021/09/06 05:20:57;;;;;;;;;;;;;;;21.82;47.61;101825.75;4917114;29;19927;-59
2021/09/06 05:23:23;;;;;;;;;;;;;;;21.85;47.60;101825.50;4916910;29;20464;-60
2021/09/06 05:25:50;;;;;;;;;;;;;;;21.92;47.29;101824.97;4933455;29;19929;-60
2021/09/06 05:28:16;;;;;;;;;;;;;;;21.96;47.06;101827.22;4920145;29;19923;-60
2021/09/06 05:30:43;;;;;;;;;;;;;;;22.04;47.11;101837.22;4914550;29;19943;-60
2021/09/06 05:33:10;;;;;;;;;;;;;;;22.12;46.53;101828.56;4914596;29;19927;-60
2021/09/06 05:35:36;;;;;;;;;;;;;;;22.18;46.61;101836.88;4914483;29;19956;-60
2021/09/06 05:38:06;;;;;;;;;;;;;;;22.27;46.61;101834.34;4914466;29;20524;-60
2021/09/06 05:40:43;;;;;;;;;;;;;;;22.31;46.49;101836.63;4913563;29;19966;-60
2021/09/06 05:43:14;;;;;;;;;;;;;;;22.33;46.28;101842.69;4918165;29;19954;-60
2021/09/06 05:45:41;;;;;;;;;;;;;;;22.35;46.76;101840.69;4928948;29;20010;-60
2021/09/06 05:48:07;;;;;;;;;;;;;;;22.33;46.75;101844.50;4914515;29;19927;-60
2021/09/06 05:50:34;;;;;;;;;;;;;;;22.32;47.11;101840.13;4931914;29;19969;-60
2021/09/06 05:53:01;;;;;;;;;;;;;;;22.29;47.05;101837.75;4933269;29;19923;-60
2021/09/06 05:55:28;;;;;;;;;;;;;;;22.12;47.80;101842.75;4933398;29;20294;-60
2021/09/06 05:57:56;;;;;;;;;;;;;;;22.25;47.31;101841.69;4932941;29;20385;-60
2021/09/06 06:00:23;;;;;;;;;;;;;;;22.23;47.72;101843.63;4933163;29;19926;-60
2021/09/06 06:02:49;;;;;;;;;;;;;;;22.36;47.68;101841.56;4933246;29;19926;-61
2021/09/06 06:05:16;;;;;;;;;;;;;;;22.37;47.60;101843.25;4931928;29;19977;-61
2021/09/06 06:07:42;;;;;;;;;;;;;;;22.37;47.62;101845.09;4932419;29;19929;-60
2021/09/06 06:10:10;;;;;;;;;;;;;;;22.44;47.31;101848.94;4933177;29;19923;-60
2021/09/06 06:12:36;;;;;;;;;;;;;;;22.43;47.68;101850.75;4932940;29;19929;-60
2021/09/06 06:15:03;;;;;;;;;;;;;;;22.53;47.70;101847.25;4932883;29;19927;-62
2021/09/06 06:17:30;;;;;;;;;;;;;;;22.55;47.64;101853.28;4932243;29;20375;-62
2021/09/06 06:19:57;;;;;;;;;;;;;;;22.59;47.97;101847.53;4928711;29;19979;-61
2021/09/06 06:22:23;;;;;;;;;;;;;;;22.66;47.76;101846.00;4930032;29;19994;-61
2021/09/06 06:24:50;;;;;;;;;;;;;;;22.72;48.14;101849.94;4929546;29;19926;-61
2021/09/06 06:27:17;;;;;;;;;;;;;;;22.84;47.80;101853.31;4932392;29;19923;-61
2021/09/06 06:29:43;;;;;;;;;;;;;;;22.97;47.88;101851.22;4932263;29;19930;-62
2021/09/06 06:32:10;;;;;;;;;;;;;;;23.05;47.61;101855.84;4932217;29;19977;-61
2021/09/06 06:34:37;;;;;;;;;;;;;;;23.26;47.51;101852.19;4932074;29;20302;-61
2021/09/06 06:37:04;;;;;;;;;;;;;;;23.41;46.70;101855.28;4931716;29;19923;-62
2021/09/06 06:39:30;;;;;;;;;;;;;;;23.49;46.66;101858.09;4931868;29;20414;-62
2021/09/06 06:41:57;;;;;;;;;;;;;;;23.59;46.29;101850.88;4927559;29;19930;-62
2021/09/06 06:44:26;;;;;;;;;;;;;;;23.70;46.84;101846.31;4931856;28;19965;-62
2021/09/06 06:46:52;;;;;;;;;;;;;;;23.85;46.20;101844.84;4932475;29;19929;-62
2021/09/06 06:49:19;;;;;;;;;;;;;;;23.98;45.28;101852.56;4932255;29;19945;-62
2021/09/06 06:51:45;;;;;;;;;;;;;;;24.12;44.91;101852.09;4931457;29;20049;-61
2021/09/06 06:54:12;;;;;;;;;;;;;;;24.22;44.52;101845.81;4931652;29;19929;-62
2021/09/06 06:56:38;;;;;;;;;;;;;;;24.30;44.05;101843.22;4931354;29;19922;-61
2021/09/06 06:59:05;;;;;;;;;;;;;;;24.43;43.59;101849.06;4930718;29;19929;-61
2021/09/06 07:01:32;;;;;;;;;;;;;;;24.52;43.40;101849.16;4932001;29;19930;-62
2021/09/06 07:03:59;;;;;;;;;;;;;;;24.63;42.71;101848.94;4931776;29;19922;-62
2021/09/06 07:06:26;;;;;;;;;;;;;;;24.73;42.19;101848.91;4931757;29;19923;-62
2021/09/06 07:08:52;;;;;;;;;;;;;;;24.81;42.09;101853.50;4931876;29;20280;-62
2021/09/06 07:11:19;;;;;;;;;;;;;;;24.86;41.76;101854.72;4931221;29;20398;-61
2021/09/06 07:13:45;;;;;;;;;;;;;;;24.89;41.77;101859.78;4931638;29;19927;-62
2021/09/06 07:16:12;;;;;;;;;;;;;;;24.98;41.46;101859.88;4931728;29;20434;-62
2021/09/06 07:18:39;;;;;;;;;;;;;;;25.08;41.11;101860.63;4931617;29;20367;-62
2021/09/06 07:21:05;;;;;;;;;;;;;;;25.21;40.77;101860.22;4931688;29;19922;-63
2021/09/06 07:23:32;;;;;;;;;;;;;;;25.29;40.69;101862.13;4928498;29;20002;-62
2021/09/06 07:25:58;;;;;;;;;;;;;;;25.39;40.30;101858.34;4919398;29;19930;-62
2021/09/06 07:28:25;;;;;;;;;;;;;;;25.53;40.03;101872.22;4919571;29;19934;-62
2021/09/06 07:30:51;;;;;;;;;;;;;;;25.59;39.62;101872.41;4912542;29;19923;-63
2021/09/06 07:33:18;;;;;;;;;;;;;;;25.75;39.40;101874.38;4912505;29;19930;-64
2021/09/06 07:35:44;;;;;;;;;;;;;;;25.88;38.91;101875.78;4912504;29;19927;-63
2021/09/06 07:38:11;;;;;;;;;;;;;;;26.02;38.49;101871.66;4922315;29;19978;-61
2021/09/06 07:40:37;;;;;;;;;;;;;;;26.11;38.41;101872.56;4928385;29;19923;-61
2021/09/06 07:43:04;;;;;;;;;;;;;;;26.19;38.19;101872.56;4930997;29;19930;-63
2021/09/06 07:45:30;;;;;;;;;;;;;;;26.33;37.92;101876.50;4931515;29;19938;-62
2021/09/06 07:47:57;;;;;;;;;;;;;;;26.47;37.62;101875.00;4931282;29;20383;-62
2021/09/06 07:50:23;;;;;;;;;;;;;;;26.61;37.37;101873.53;4931192;29;19922;-61
2021/09/06 07:52:51;;;;;;;;;;;;;;;26.69;37.29;101879.78;4930852;29;19929;-61
2021/09/06 07:55:17;;;;;;;;;;;;;;;26.83;36.83;101881.00;4931098;29;19922;-62
2021/09/06 07:57:44;;;;;;;;;;;;;;;26.96;36.43;101877.81;4930642;29;19926;-61
2021/09/06 08:00:11;;;;;;;;;;;;;;;27.01;36.31;101880.84;4930479;29;19938;-62
2021/09/06 08:02:48;;;;;;;;;;;;;;;27.09;35.99;101876.47;4931062;29;19923;-63
2021/09/06 08:05:22;;;;;;;;;;;;;;;27.23;35.64;101891.94;4932182;29;19965;-63
2021/09/06 08:07:52;;;;;;;;;;;;;;;27.37;35.06;101888.53;4934794;29;19930;-62
2021/09/06 08:10:19;;;;;;;;;;;;;;;27.45;34.87;101892.28;4935019;29;20355;-63
2021/09/06 08:12:45;;;;;;;;;;;;;;;27.56;34.50;101891.09;4934419;29;19977;-64
2021/09/06 08:15:12;;;;;;;;;;;;;;;27.66;34.15;101895.28;4934062;29;19923;-65
2021/09/06 08:17:39;;;;;;;;;;;;;;;27.72;34.03;101891.06;4934319;29;19923;-62
2021/09/06 08:20:07;;;;;;;;;;;;;;;27.79;33.65;101888.50;4934392;29;19930;-63
2021/09/06 08:22:35;;;;;;;;;;;;;;;27.92;33.00;101888.81;4934256;29;19922;-64
2021/09/06 08:25:03;;;;;;;;;;;;;;;27.96;32.70;101884.75;4934516;29;19931;-64
2021/09/06 08:27:31;;;;;;;;;;;;;;;28.08;32.11;101889.78;4934231;29;19923;-63
2021/09/06 08:29:57;;;;;;;;;;;;;;;28.21;31.70;101881.94;4934198;29;20084;-62
2021/09/06 08:32:24;;;;;;;;;;;;;;;28.29;31.45;101892.72;4915390;29;19923;-62
2021/09/06 08:34:52;;;;;;;;;;;;;;;28.59;30.99;101882.06;4915325;29;19923;-59
2021/09/06 08:37:19;;;;;;;;;;;;;;;28.81;30.30;101880.44;4914409;29;19923;-59
2021/09/06 08:39:46;;;;;;;;;;;;;;;29.05;30.03;101891.22;4915035;29;19930;-59
2021/09/06 08:42:12;;;;;;;;;;;;;;;29.07;29.90;101890.03;4914303;29;19926;-58
2021/09/06 08:44:40;;;;;;;;;;;;;;;29.22;29.48;101894.66;4914590;29;19930;-59
2021/09/06 08:47:07;;;;;;;;;;;;;;;29.34;29.47;101890.47;4916500;29;20295;-59
2021/09/06 08:49:33;;;;;;;;;;;;;;;29.40;29.11;101905.16;4932971;29;19973;-60
2021/09/06 08:52:00;;;;;;;;;;;;;;;29.53;28.68;101894.53;4933876;29;19954;-59
2021/09/06 08:54:27;;;;;;;;;;;;;;;29.67;28.34;101898.25;4934255;29;19927;-59
2021/09/06 08:56:54;;;;;;;;;;;;;;;29.80;28.11;101901.16;4933779;29;19934;-58
2021/09/06 08:59:20;;;;;;;;;;;;;;;29.79;28.39;101906.78;4933585;29;19923;-60
2021/09/06 09:01:48;;;;;;;;;;;;;;;29.92;27.83;101906.16;4933564;29;19931;-62
2021/09/06 09:04:20;;;;;;;;;;;;;;;30.08;27.57;101905.09;4933611;29;19966;-60
2021/09/06 09:06:48;;;;;;;;;;;;;;;30.20;27.16;101906.28;4933513;29;19990;-61
2021/09/06 09:09:31;;;;;;;;;;;;;;;30.40;26.99;101903.81;4933359;29;20287;-60
2021/09/06 09:12:07;;;;;;;;;;;;;;;30.45;26.92;101904.09;4930744;29;19933;-60
2021/09/06 09:14:35;;;;;;;;;;;;;;;30.19;27.62;101918.13;4932862;29;19968;-61
2021/09/06 09:17:02;;;;;;;;;;;;;;;30.08;27.50;101905.09;4932955;29;19927;-61
2021/09/06 09:19:28;;;;;;;;;;;;;;;30.38;27.13;101902.34;4932773;29;19931;-60
2021/09/06 09:21:56;;;;;;;;;;;;;;;30.73;26.59;101900.66;4932692;29;20344;-60
2021/09/06 09:24:23;;;;;;;;;;;;;;;30.69;26.47;101891.25;4930168;29;19929;-60
2021/09/06 09:26:51;;;;;;;;;;;;;;;30.74;26.72;101891.50;4932391;29;19929;-61
2021/09/06 09:29:19;;;;;;;;;;;;;;;30.94;26.25;101891.69;4933010;29;19938;-61
2021/09/06 09:31:50;;;;;;;;;;;;;;;31.18;26.21;101894.22;4932497;29;19922;-62
2021/09/06 09:34:16;;;;;;;;;;;;;;;31.32;25.73;101895.97;4933002;29;19923;-61
2021/09/06 09:36:43;;;;;;;;;;;;;;;31.49;25.71;101893.81;4929864;29;19923;-62
2021/09/06 09:39:15;;;;;;;;;;;;;;;31.61;25.43;101887.84;4932353;29;19929;-60
2021/09/06 09:41:43;;;;;;;;;;;;;;;31.71;24.88;101894.59;4932212;29;19934;-60
2021/09/06 09:44:09;;;;;;;;;;;;;;;31.79;25.16;101888.16;4932943;29;19982;-59
2021/09/06 09:46:36;;;;;;;;;;;;;;;31.89;24.99;101896.78;4932928;29;19969;-60
2021/09/06 09:49:09;;;;;;;;;;;;;;;31.67;25.11;101896.03;4930415;29;20347;-62
2021/09/06 09:51:36;;;;;;;;;;;;;;;31.73;25.25;101897.09;4928403;29;19922;-60
2021/09/06 09:54:04;;;;;;;;;;;;;;;32.05;24.78;101892.88;4932556;29;19926;-60
2021/09/06 09:56:30;;;;;;;;;;;;;;;31.18;25.72;101886.91;4913566;29;19927;-60
2021/09/06 09:58:57;;;;;;;;;;;;;;;31.30;25.22;101897.22;4912700;29;19923;-60
2021/09/06 10:01:25;;;;;;;;;;;;;;;31.68;25.03;101889.56;4932530;29;19923;-60
2021/09/06 10:03:53;;;;;;;;;;;;;;;32.03;24.68;101883.28;4932400;29;20016;-61
2021/09/06 10:06:20;;;;;;;;;;;;;;;31.79;24.83;101884.63;4932342;29;19970;-61
2021/09/06 10:08:52;;;;;;;;;;;;;;;31.45;25.33;101878.94;4932819;29;19971;-61
2021/09/06 10:11:19;;;;;;;;;;;;;;;31.09;25.58;101877.25;4931683;29;20013;-60
2021/09/06 10:13:45;;;;;;;;;;;;;;;31.53;24.80;101880.69;4932578;29;19922;-60
2021/09/06 10:16:13;;;;;;;;;;;;;;;32.13;24.30;101874.75;4932499;29;19923;-60
2021/09/06 10:18:41;;;;;;;;;;;;;;;32.44;23.90;101868.78;4932094;29;20319;-60
2021/09/06 10:21:12;;;;;;;;;;;;;;;32.95;22.91;101862.00;4932115;29;19923;-60
2021/09/06 10:23:46;;;;;;;;;;;;;;;33.28;22.47;101861.16;4931743;29;19954;-60
2021/09/06 10:26:13;;;;;;;;;;;;;;;33.23;22.55;101860.91;4931514;29;19926;-62
2021/09/06 10:28:40;;;;;;;;;;;;;;;33.63;22.52;101855.41;4914683;29;19946;-61
2021/09/06 10:31:16;;;;;;;;;;;;;;;33.80;21.88;101855.78;4915846;29;19923;-60
2021/09/06 10:33:43;;;;;;;;;;;;;;;32.77;23.54;101859.88;4922161;29;19978;-60
2021/09/06 10:36:10;;;;;;;;;;;;;;;32.13;24.27;101851.13;4924158;29;20968;-61
2021/09/06 10:38:42;;;;;;;;;;;;;;;32.23;23.79;101851.59;4913942;29;20050;-60
2021/09/06 10:41:17;;;;;;;;;;;;;;;32.03;24.19;101859.66;4931332;29;19922;-59
2021/09/06 10:43:48;;;;;;;;;;;;;;;31.81;24.59;101855.38;4921782;29;20375;-59
2021/09/06 10:46:15;;;;;;;;;;;;;;;31.48;24.72;101848.72;4919910;29;20383;-59
2021/09/06 10:48:42;;;;;;;;;;;;;;;31.41;24.88;101856.84;4931670;29;20387;-60
2021/09/06 10:51:09;;;;;;;;;;;;;;;31.53;24.74;101851.69;4931691;29;19926;-60
2021/09/06 10:53:38;;;;;;;;;;;;;;;31.28;24.58;101845.88;4926505;29;19949;-59
2021/09/06 10:56:05;;;;;;;;;;;;;;;31.23;24.94;101853.78;4931588;29;19923;-60
2021/09/06 10:58:32;;;;;;;;;;;;;;;31.41;24.51;101851.41;4925008;29;20470;-61
2021/09/06 11:01:00;;;;;;;;;;;;;;;31.37;24.80;101852.00;4915646;29;20026;-60
2021/09/06 11:03:37;;;;;;;;;;;;;;;31.38;24.65;101854.50;4920801;29;19927;-61
2021/09/06 11:06:04;;;;;;;;;;;;;;;31.33;24.94;101856.97;4931695;29;19952;-61
2021/09/06 11:08:32;;;;;;;;;;;;;;;31.44;24.73;101855.59;4930913;29;19923;-60
2021/09/06 11:11:01;;;;;;;;;;;;;;;32.06;23.64;101851.13;4931531;29;19922;-60
2021/09/06 11:13:47;;;;;;;;;;;;;;;31.85;23.82;101846.66;4931547;29;19922;-61
2021/09/06 11:16:18;;;;;;;;;;;;;;;31.52;24.53;101843.75;4931698;29;20017;-61
2021/09/06 11:18:45;;;;;;;;;;;;;;;31.75;24.00;101838.88;4931717;29;19926;-60
2021/09/06 11:21:12;;;;;;;;;;;;;;;32.15;23.85;101829.19;4931002;29;19923;-60
2021/09/06 11:23:40;;;;;;;;;;;;;;;32.11;23.97;101833.38;4931816;29;19929;-60
2021/09/06 11:26:08;;;;;;;;;;;;;;;33.19;22.71;101836.03;4931827;29;20386;-61
2021/09/06 11:28:43;;;;;;;;;;;;;;;33.93;21.76;101824.09;4931086;29;20620;-61
2021/09/06 11:31:16;;;;;;;;;;;;;;;33.92;21.90;101817.00;4931205;29;19923;-62
2021/09/06 11:33:43;;;;;;;;;;;;;;;34.07;21.55;101828.44;4931390;29;19923;-60
2021/09/06 11:36:15;;;;;;;;;;;;;;;34.20;21.55;101827.53;4931313;29;20360;-61
2021/09/06 11:38:41;;;;;;;;;;;;;;;33.91;21.88;101823.50;4931501;29;19929;-61
2021/09/06 11:41:08;;;;;;;;;;;;;;;34.43;21.27;101817.97;4935248;29;19922;-61
2021/09/06 11:43:34;;;;;;;;;;;;;;;34.70;20.78;101823.22;4935219;29;19934;-61
2021/09/06 11:46:02;;;;;;;;;;;;;;;34.79;20.76;101819.16;4935009;29;19927;-61
2021/09/06 11:48:49;;;;;;;;;;;;;;;34.94;20.68;101827.84;4935118;29;19965;-60
2021/09/06 11:51:16;;;;;;;;;;;;;;;35.12;20.39;101816.16;4934229;29;19982;-60
2021/09/06 11:54:12;;;;;;;;;;;;;;;35.29;19.93;101819.09;4935369;29;20347;-61
2021/09/06 11:56:39;;;;;;;;;;;;;;;35.26;20.12;101810.53;4934156;29;19985;-60
2021/09/06 11:59:06;;;;;;;;;;;;;;;35.39;19.70;101817.75;4934969;29;19926;-60
2021/09/06 12:01:35;;;;;;;;;;;;;;;35.43;19.58;101813.53;4934908;29;20273;-62
2021/09/06 12:04:03;;;;;;;;;;;;;;;35.49;19.48;101809.91;4934737;29;20025;-60
2021/09/06 12:06:30;;;;;;;;;;;;;;;35.58;19.31;101811.25;4934531;29;19930;-60
2021/09/06 12:08:58;;;;;;;;;;;;;;;35.74;19.01;101807.03;4934626;29;19979;-61
2021/09/06 12:11:49;;;;;;;;;;;;;;;35.82;19.45;101815.97;4932237;29;19977;-61
2021/09/06 12:14:16;;;;;;;;;;;;;;;35.89;18.94;101814.03;4934534;29;20013;-61
2021/09/06 12:16:42;;;;;;;;;;;;;;;35.87;18.84;101814.28;4934808;29;20015;-62
2021/09/06 12:19:16;;;;;;;;;;;;;;;35.85;18.77;101802.69;4934521;29;19923;-62
2021/09/06 12:21:43;;;;;;;;;;;;;;;35.97;18.75;101813.69;4933581;29;19922;-62
2021/09/06 12:24:10;;;;;;;;;;;;;;;35.99;18.72;101811.59;4933668;29;19978;-62
2021/09/06 12:26:44;;;;;;;;;;;;;;;36.01;18.56;101805.88;4933937;29;20061;-61
2021/09/06 12:29:11;;;;;;;;;;;;;;;35.97;18.29;101805.50;4934313;29;20384;-60
2021/09/06 12:31:41;;;;;;;;;;;;;;;36.07;18.39;101794.84;4933927;29;19977;-63
2021/09/06 12:34:09;;;;;;;;;;;;;;;36.17;18.15;101793.47;4934469;29;19923;-61
2021/09/06 12:36:36;;;;;;;;;;;;;;;36.17;18.36;101799.75;4933547;29;19938;-61